sensor_id;sensor_type;location;lat;lon;timestamp;P1;durP1;ratioP1;P2;durP2;ratioP2
20150;SDS011;10236;49.638;6.830;2022-09-03T00:01:49;2.80;;;0.90;;
20150;SDS011;10236;49.638;6.830;2022-09-03T00:04:20;2.60;;;1.00;;
20150;SDS011;10236;49.638;6.830;2022-09-03T00:07:07;2.53;;;1.03;;
20150;SDS011;10236;49.638;6.830;2022-09-03T00:09:35;1.83;;;0.90;;
20150;SDS011;10236;49.638;6.830;2022-09-03T00:14:49;4.43;;;1.30;;
20150;SDS011;10236;49.638;6.830;2022-09-03T00:17:24;5.50;;;1.17;;
20150;SDS011;10236;49.638;6.830;2022-09-03T00:19:53;2.20;;;1.00;;
20150;SDS011;10236;49.638;6.830;2022-09-03T00:22:24;1.00;;;0.80;;
20150;SDS011;10236;49.638;6.830;2022-09-03T00:24:53;1.73;;;0.80;;
20150;SDS011;10236;49.638;6.830;2022-09-03T00:27:21;1.10;;;0.80;;
20150;SDS011;10236;49.638;6.830;2022-09-03T00:29:54;1.43;;;1.20;;
20150;SDS011;10236;49.638;6.830;2022-09-03T00:32:26;1.27;;;0.70;;
20150;SDS011;10236;49.638;6.830;2022-09-03T00:34:57;1.10;;;0.90;;
20150;SDS011;10236;49.638;6.830;2022-09-03T00:37:26;3.67;;;1.00;;
20150;SDS011;10236;49.638;6.830;2022-09-03T00:39:53;1.57;;;1.10;;
20150;SDS011;10236;49.638;6.830;2022-09-03T00:57:37;3.80;;;1.23;;
20150;SDS011;10236;49.638;6.830;2022-09-03T01:00:07;2.53;;;1.10;;
20150;SDS011;10236;49.638;6.830;2022-09-03T01:02:36;4.53;;;0.90;;
20150;SDS011;10236;49.638;6.830;2022-09-03T01:05:10;2.90;;;1.13;;
20150;SDS011;10236;49.638;6.830;2022-09-03T01:07:40;3.30;;;0.90;;
20150;SDS011;10236;49.638;6.830;2022-09-03T01:15:26;3.77;;;0.97;;
20150;SDS011;10236;49.638;6.830;2022-09-03T01:17:58;3.27;;;0.93;;
20150;SDS011;10236;49.638;6.830;2022-09-03T01:20:44;2.10;;;0.90;;
20150;SDS011;10236;49.638;6.830;2022-09-03T01:23:16;5.23;;;0.90;;
20150;SDS011;10236;49.638;6.830;2022-09-03T01:31:13;1.80;;;1.00;;
20150;SDS011;10236;49.638;6.830;2022-09-03T01:34:44;4.63;;;1.30;;
20150;SDS011;10236;49.638;6.830;2022-09-03T01:36:40;2.70;;;1.00;;
20150;SDS011;10236;49.638;6.830;2022-09-03T01:39:16;2.17;;;0.70;;
20150;SDS011;10236;49.638;6.830;2022-09-03T01:41:47;3.03;;;1.00;;
20150;SDS011;10236;49.638;6.830;2022-09-03T01:49:39;2.93;;;1.07;;
20150;SDS011;10236;49.638;6.830;2022-09-03T01:52:18;2.63;;;1.10;;
20150;SDS011;10236;49.638;6.830;2022-09-03T01:54:47;1.77;;;1.00;;
20150;SDS011;10236;49.638;6.830;2022-09-03T01:57:38;1.70;;;1.27;;
20150;SDS011;10236;49.638;6.830;2022-09-03T02:00:07;6.97;;;1.37;;
20150;SDS011;10236;49.638;6.830;2022-09-03T02:02:34;2.17;;;1.00;;
20150;SDS011;10236;49.638;6.830;2022-09-03T02:05:08;3.13;;;1.13;;
20150;SDS011;10236;49.638;6.830;2022-09-03T02:07:45;3.53;;;1.10;;
20150;SDS011;10236;49.638;6.830;2022-09-03T02:10:15;1.33;;;0.97;;
20150;SDS011;10236;49.638;6.830;2022-09-03T02:12:43;13.80;;;1.40;;
20150;SDS011;10236;49.638;6.830;2022-09-03T02:15:12;2.93;;;1.00;;
20150;SDS011;10236;49.638;6.830;2022-09-03T02:17:39;3.03;;;1.00;;
20150;SDS011;10236;49.638;6.830;2022-09-03T02:20:07;1.50;;;1.00;;
20150;SDS011;10236;49.638;6.830;2022-09-03T02:22:35;1.93;;;1.00;;
20150;SDS011;10236;49.638;6.830;2022-09-03T02:25:02;1.67;;;0.87;;
20150;SDS011;10236;49.638;6.830;2022-09-03T02:27:28;2.27;;;1.20;;
20150;SDS011;10236;49.638;6.830;2022-09-03T02:29:55;2.30;;;1.13;;
20150;SDS011;10236;49.638;6.830;2022-09-03T02:32:21;3.83;;;1.10;;
20150;SDS011;10236;49.638;6.830;2022-09-03T02:34:47;2.90;;;1.10;;
20150;SDS011;10236;49.638;6.830;2022-09-03T02:37:13;1.30;;;0.90;;
20150;SDS011;10236;49.638;6.830;2022-09-03T02:39:40;2.20;;;1.00;;
20150;SDS011;10236;49.638;6.830;2022-09-03T02:42:06;5.53;;;1.00;;
20150;SDS011;10236;49.638;6.830;2022-09-03T02:44:34;2.40;;;0.93;;
20150;SDS011;10236;49.638;6.830;2022-09-03T02:47:02;2.93;;;0.87;;
20150;SDS011;10236;49.638;6.830;2022-09-03T02:49:29;2.83;;;1.20;;
20150;SDS011;10236;49.638;6.830;2022-09-03T02:51:58;3.13;;;1.30;;
20150;SDS011;10236;49.638;6.830;2022-09-03T02:54:25;1.40;;;1.03;;
20150;SDS011;10236;49.638;6.830;2022-09-03T02:56:52;2.83;;;1.03;;
20150;SDS011;10236;49.638;6.830;2022-09-03T02:59:18;3.00;;;1.20;;
20150;SDS011;10236;49.638;6.830;2022-09-03T03:01:46;5.37;;;1.20;;
20150;SDS011;10236;49.638;6.830;2022-09-03T03:04:12;4.47;;;1.10;;
20150;SDS011;10236;49.638;6.830;2022-09-03T03:06:38;2.87;;;1.17;;
20150;SDS011;10236;49.638;6.830;2022-09-03T03:09:04;5.43;;;1.20;;
20150;SDS011;10236;49.638;6.830;2022-09-03T03:11:31;4.83;;;1.20;;
20150;SDS011;10236;49.638;6.830;2022-09-03T03:13:57;2.67;;;1.13;;
20150;SDS011;10236;49.638;6.830;2022-09-03T03:16:23;1.63;;;1.20;;
20150;SDS011;10236;49.638;6.830;2022-09-03T03:18:49;2.50;;;1.10;;
20150;SDS011;10236;49.638;6.830;2022-09-03T03:21:17;1.63;;;1.10;;
20150;SDS011;10236;49.638;6.830;2022-09-03T03:23:43;1.63;;;1.20;;
20150;SDS011;10236;49.638;6.830;2022-09-03T03:26:10;2.43;;;1.03;;
20150;SDS011;10236;49.638;6.830;2022-09-03T03:28:36;5.37;;;1.40;;
20150;SDS011;10236;49.638;6.830;2022-09-03T03:31:09;2.00;;;1.20;;
20150;SDS011;10236;49.638;6.830;2022-09-03T03:33:36;2.00;;;1.10;;
20150;SDS011;10236;49.638;6.830;2022-09-03T03:36:03;6.40;;;1.53;;
20150;SDS011;10236;49.638;6.830;2022-09-03T03:38:29;2.13;;;1.43;;
20150;SDS011;10236;49.638;6.830;2022-09-03T03:40:55;2.23;;;1.50;;
20150;SDS011;10236;49.638;6.830;2022-09-03T03:43:21;2.40;;;1.33;;
20150;SDS011;10236;49.638;6.830;2022-09-03T03:45:57;5.07;;;1.30;;
20150;SDS011;10236;49.638;6.830;2022-09-03T03:48:24;3.23;;;1.60;;
20150;SDS011;10236;49.638;6.830;2022-09-03T03:50:50;2.77;;;1.27;;
20150;SDS011;10236;49.638;6.830;2022-09-03T03:53:16;2.40;;;1.33;;
20150;SDS011;10236;49.638;6.830;2022-09-03T03:55:42;2.43;;;1.40;;
20150;SDS011;10236;49.638;6.830;2022-09-03T03:58:08;3.17;;;1.40;;
20150;SDS011;10236;49.638;6.830;2022-09-03T04:00:34;2.67;;;1.40;;
20150;SDS011;10236;49.638;6.830;2022-09-03T04:03:01;5.70;;;2.03;;
20150;SDS011;10236;49.638;6.830;2022-09-03T04:05:28;2.73;;;1.27;;
20150;SDS011;10236;49.638;6.830;2022-09-03T04:07:54;3.67;;;1.50;;
20150;SDS011;10236;49.638;6.830;2022-09-03T04:10:20;3.53;;;1.30;;
20150;SDS011;10236;49.638;6.830;2022-09-03T04:12:46;2.33;;;1.20;;
20150;SDS011;10236;49.638;6.830;2022-09-03T04:15:12;1.37;;;1.20;;
20150;SDS011;10236;49.638;6.830;2022-09-03T04:17:38;3.20;;;1.67;;
20150;SDS011;10236;49.638;6.830;2022-09-03T04:20:04;2.13;;;1.47;;
20150;SDS011;10236;49.638;6.830;2022-09-03T04:22:30;3.03;;;1.50;;
20150;SDS011;10236;49.638;6.830;2022-09-03T04:24:56;3.47;;;1.50;;
20150;SDS011;10236;49.638;6.830;2022-09-03T04:27:22;3.33;;;1.40;;
20150;SDS011;10236;49.638;6.830;2022-09-03T04:29:48;1.97;;;1.40;;
20150;SDS011;10236;49.638;6.830;2022-09-03T04:32:14;2.47;;;1.40;;
20150;SDS011;10236;49.638;6.830;2022-09-03T04:34:59;2.43;;;1.40;;
20150;SDS011;10236;49.638;6.830;2022-09-03T04:37:25;2.77;;;1.50;;
20150;SDS011;10236;49.638;6.830;2022-09-03T04:43:02;4.00;;;1.47;;
20150;SDS011;10236;49.638;6.830;2022-09-03T04:45:28;2.40;;;1.50;;
20150;SDS011;10236;49.638;6.830;2022-09-03T04:47:58;2.80;;;1.57;;
20150;SDS011;10236;49.638;6.830;2022-09-03T04:50:25;3.33;;;1.13;;
20150;SDS011;10236;49.638;6.830;2022-09-03T04:52:59;2.90;;;1.40;;
20150;SDS011;10236;49.638;6.830;2022-09-03T04:55:26;2.33;;;1.43;;
20150;SDS011;10236;49.638;6.830;2022-09-03T04:57:52;4.27;;;1.60;;
20150;SDS011;10236;49.638;6.830;2022-09-03T05:00:18;2.33;;;1.50;;
20150;SDS011;10236;49.638;6.830;2022-09-03T05:02:44;3.90;;;1.10;;
20150;SDS011;10236;49.638;6.830;2022-09-03T05:05:16;1.90;;;1.00;;
20150;SDS011;10236;49.638;6.830;2022-09-03T05:07:42;3.10;;;1.47;;
20150;SDS011;10236;49.638;6.830;2022-09-03T05:10:09;1.70;;;1.37;;
20150;SDS011;10236;49.638;6.830;2022-09-03T05:12:44;2.60;;;1.93;;
20150;SDS011;10236;49.638;6.830;2022-09-03T05:15:10;1.63;;;1.10;;
20150;SDS011;10236;49.638;6.830;2022-09-03T05:17:36;2.47;;;1.23;;
20150;SDS011;10236;49.638;6.830;2022-09-03T05:20:03;3.17;;;1.30;;
20150;SDS011;10236;49.638;6.830;2022-09-03T05:22:32;2.40;;;1.30;;
20150;SDS011;10236;49.638;6.830;2022-09-03T05:24:58;3.20;;;1.30;;
20150;SDS011;10236;49.638;6.830;2022-09-03T05:27:24;5.20;;;1.50;;
20150;SDS011;10236;49.638;6.830;2022-09-03T05:29:50;1.73;;;1.20;;
20150;SDS011;10236;49.638;6.830;2022-09-03T05:32:16;2.30;;;1.60;;
20150;SDS011;10236;49.638;6.830;2022-09-03T05:34:42;4.30;;;1.40;;
20150;SDS011;10236;49.638;6.830;2022-09-03T05:37:08;5.27;;;1.43;;
20150;SDS011;10236;49.638;6.830;2022-09-03T05:39:36;3.77;;;1.80;;
20150;SDS011;10236;49.638;6.830;2022-09-03T05:42:02;5.23;;;1.50;;
20150;SDS011;10236;49.638;6.830;2022-09-03T05:44:28;1.90;;;1.53;;
20150;SDS011;10236;49.638;6.830;2022-09-03T05:46:55;2.10;;;1.40;;
20150;SDS011;10236;49.638;6.830;2022-09-03T05:49:22;2.80;;;1.50;;
20150;SDS011;10236;49.638;6.830;2022-09-03T05:51:47;1.50;;;1.20;;
20150;SDS011;10236;49.638;6.830;2022-09-03T05:54:13;2.80;;;1.40;;
20150;SDS011;10236;49.638;6.830;2022-09-03T05:56:39;7.07;;;1.37;;
20150;SDS011;10236;49.638;6.830;2022-09-03T05:59:06;3.67;;;1.30;;
20150;SDS011;10236;49.638;6.830;2022-09-03T06:06:29;2.20;;;1.63;;
20150;SDS011;10236;49.638;6.830;2022-09-03T06:09:06;3.13;;;1.57;;
20150;SDS011;10236;49.638;6.830;2022-09-03T06:11:33;3.30;;;1.90;;
20150;SDS011;10236;49.638;6.830;2022-09-03T06:14:00;3.07;;;1.90;;
20150;SDS011;10236;49.638;6.830;2022-09-03T06:16:26;2.30;;;1.37;;
20150;SDS011;10236;49.638;6.830;2022-09-03T06:18:53;3.67;;;1.57;;
20150;SDS011;10236;49.638;6.830;2022-09-03T06:21:19;2.93;;;1.47;;
20150;SDS011;10236;49.638;6.830;2022-09-03T06:23:49;1.77;;;1.63;;
20150;SDS011;10236;49.638;6.830;2022-09-03T06:26:16;3.97;;;2.10;;
20150;SDS011;10236;49.638;6.830;2022-09-03T06:28:42;3.90;;;2.07;;
20150;SDS011;10236;49.638;6.830;2022-09-03T06:31:12;2.10;;;1.80;;
20150;SDS011;10236;49.638;6.830;2022-09-03T06:33:39;2.33;;;1.73;;
20150;SDS011;10236;49.638;6.830;2022-09-03T06:36:07;3.73;;;2.67;;
20150;SDS011;10236;49.638;6.830;2022-09-03T06:38:34;4.70;;;2.73;;
20150;SDS011;10236;49.638;6.830;2022-09-03T06:41:02;4.50;;;3.00;;
20150;SDS011;10236;49.638;6.830;2022-09-03T06:43:29;5.93;;;3.40;;
20150;SDS011;10236;49.638;6.830;2022-09-03T06:45:59;4.43;;;3.47;;
20150;SDS011;10236;49.638;6.830;2022-09-03T06:48:26;6.30;;;2.80;;
20150;SDS011;10236;49.638;6.830;2022-09-03T06:50:53;3.63;;;2.00;;
20150;SDS011;10236;49.638;6.830;2022-09-03T06:53:21;4.63;;;2.30;;
20150;SDS011;10236;49.638;6.830;2022-09-03T06:56:00;4.00;;;3.60;;
20150;SDS011;10236;49.638;6.830;2022-09-03T06:58:30;4.07;;;2.63;;
20150;SDS011;10236;49.638;6.830;2022-09-03T07:01:06;3.67;;;2.37;;
20150;SDS011;10236;49.638;6.830;2022-09-03T07:03:33;2.87;;;1.93;;
20150;SDS011;10236;49.638;6.830;2022-09-03T07:06:00;2.60;;;1.90;;
20150;SDS011;10236;49.638;6.830;2022-09-03T07:08:26;6.10;;;2.37;;
20150;SDS011;10236;49.638;6.830;2022-09-03T07:10:52;4.40;;;2.50;;
20150;SDS011;10236;49.638;6.830;2022-09-03T07:13:18;4.60;;;2.50;;
20150;SDS011;10236;49.638;6.830;2022-09-03T07:15:44;5.27;;;2.17;;
20150;SDS011;10236;49.638;6.830;2022-09-03T07:18:10;3.60;;;3.13;;
20150;SDS011;10236;49.638;6.830;2022-09-03T07:20:36;3.13;;;2.80;;
20150;SDS011;10236;49.638;6.830;2022-09-03T07:23:21;4.30;;;3.70;;
20150;SDS011;10236;49.638;6.830;2022-09-03T07:25:51;3.87;;;3.20;;
20150;SDS011;10236;49.638;6.830;2022-09-03T07:28:18;4.60;;;4.20;;
20150;SDS011;10236;49.638;6.830;2022-09-03T07:30:44;4.20;;;3.80;;
20150;SDS011;10236;49.638;6.830;2022-09-03T07:33:10;4.63;;;3.30;;
20150;SDS011;10236;49.638;6.830;2022-09-03T07:35:36;3.67;;;3.37;;
20150;SDS011;10236;49.638;6.830;2022-09-03T07:38:02;4.23;;;3.83;;
20150;SDS011;10236;49.638;6.830;2022-09-03T07:40:28;3.97;;;3.57;;
20150;SDS011;10236;49.638;6.830;2022-09-03T07:42:57;4.20;;;3.80;;
20150;SDS011;10236;49.638;6.830;2022-09-03T07:45:26;4.00;;;3.70;;
20150;SDS011;10236;49.638;6.830;2022-09-03T07:47:52;6.03;;;4.03;;
20150;SDS011;10236;49.638;6.830;2022-09-03T07:50:18;4.97;;;4.50;;
20150;SDS011;10236;49.638;6.830;2022-09-03T07:52:44;4.68;;;3.80;;
20150;SDS011;10236;49.638;6.830;2022-09-03T07:55:11;4.87;;;4.30;;
20150;SDS011;10236;49.638;6.830;2022-09-03T07:57:38;4.60;;;4.20;;
20150;SDS011;10236;49.638;6.830;2022-09-03T08:00:04;5.30;;;4.80;;
20150;SDS011;10236;49.638;6.830;2022-09-03T08:02:32;6.57;;;5.17;;
20150;SDS011;10236;49.638;6.830;2022-09-03T08:04:58;7.70;;;6.13;;
20150;SDS011;10236;49.638;6.830;2022-09-03T08:07:25;6.50;;;5.90;;
20150;SDS011;10236;49.638;6.830;2022-09-03T08:09:53;8.13;;;6.80;;
20150;SDS011;10236;49.638;6.830;2022-09-03T08:12:19;7.17;;;6.30;;
20150;SDS011;10236;49.638;6.830;2022-09-03T08:14:45;7.50;;;6.70;;
20150;SDS011;10236;49.638;6.830;2022-09-03T08:17:12;6.90;;;6.20;;
20150;SDS011;10236;49.638;6.830;2022-09-03T08:19:38;8.03;;;7.23;;
20150;SDS011;10236;49.638;6.830;2022-09-03T08:22:05;10.45;;;7.95;;
20150;SDS011;10236;49.638;6.830;2022-09-03T08:24:31;10.17;;;8.43;;
20150;SDS011;10236;49.638;6.830;2022-09-03T08:26:58;9.60;;;8.25;;
20150;SDS011;10236;49.638;6.830;2022-09-03T08:29:24;8.13;;;7.28;;
20150;SDS011;10236;49.638;6.830;2022-09-03T08:31:51;10.52;;;8.05;;
20150;SDS011;10236;49.638;6.830;2022-09-03T08:34:17;12.13;;;9.52;;
20150;SDS011;10236;49.638;6.830;2022-09-03T08:36:44;10.77;;;8.13;;
20150;SDS011;10236;49.638;6.830;2022-09-03T08:44:35;11.38;;;9.60;;
20150;SDS011;10236;49.638;6.830;2022-09-03T08:47:11;9.82;;;8.82;;
20150;SDS011;10236;49.638;6.830;2022-09-03T08:52:06;13.55;;;8.90;;
20150;SDS011;10236;49.638;6.830;2022-09-03T08:54:33;9.05;;;8.13;;
20150;SDS011;10236;49.638;6.830;2022-09-03T08:57:01;8.63;;;7.47;;
20150;SDS011;10236;49.638;6.830;2022-09-03T08:59:30;7.10;;;6.40;;
20150;SDS011;10236;49.638;6.830;2022-09-03T09:04:42;7.00;;;6.30;;
20150;SDS011;10236;49.638;6.830;2022-09-03T09:07:13;6.82;;;6.10;;
20150;SDS011;10236;49.638;6.830;2022-09-03T09:15:08;6.38;;;5.03;;
20150;SDS011;10236;49.638;6.830;2022-09-03T09:20:24;7.60;;;5.13;;
20150;SDS011;10236;49.638;6.830;2022-09-03T09:22:53;8.38;;;5.13;;
20150;SDS011;10236;49.638;6.830;2022-09-03T09:25:21;6.57;;;5.53;;
20150;SDS011;10236;49.638;6.830;2022-09-03T09:30:32;7.45;;;6.50;;
20150;SDS011;10236;49.638;6.830;2022-09-03T09:32:58;6.53;;;5.93;;
20150;SDS011;10236;49.638;6.830;2022-09-03T09:35:24;6.82;;;6.22;;
20150;SDS011;10236;49.638;6.830;2022-09-03T09:37:51;6.55;;;5.88;;
20150;SDS011;10236;49.638;6.830;2022-09-03T09:41:06;5.78;;;5.18;;
20150;SDS011;10236;49.638;6.830;2022-09-03T09:43:08;5.88;;;4.72;;
20150;SDS011;10236;49.638;6.830;2022-09-03T09:45:36;5.65;;;5.15;;
20150;SDS011;10236;49.638;6.830;2022-09-03T09:48:07;7.45;;;6.22;;
20150;SDS011;10236;49.638;6.830;2022-09-03T09:50:34;7.03;;;6.32;;
20150;SDS011;10236;49.638;6.830;2022-09-03T09:53:00;8.30;;;6.32;;
20150;SDS011;10236;49.638;6.830;2022-09-03T09:55:29;7.70;;;6.95;;
20150;SDS011;10236;49.638;6.830;2022-09-03T09:58:06;10.82;;;9.82;;
20150;SDS011;10236;49.638;6.830;2022-09-03T10:00:33;12.13;;;10.60;;
20150;SDS011;10236;49.638;6.830;2022-09-03T10:03:05;14.55;;;13.07;;
20150;SDS011;10236;49.638;6.830;2022-09-03T10:05:31;17.33;;;13.70;;
20150;SDS011;10236;49.638;6.830;2022-09-03T10:08:03;15.30;;;13.80;;
20150;SDS011;10236;49.638;6.830;2022-09-03T10:10:29;16.23;;;14.52;;
20150;SDS011;10236;49.638;6.830;2022-09-03T10:13:12;15.73;;;13.02;;
20150;SDS011;10236;49.638;6.830;2022-09-03T10:21:01;12.18;;;10.88;;
20150;SDS011;10236;49.638;6.830;2022-09-03T10:23:29;11.52;;;10.20;;
20150;SDS011;10236;49.638;6.830;2022-09-03T10:26:02;9.07;;;7.15;;
20150;SDS011;10236;49.638;6.830;2022-09-03T10:28:31;8.50;;;6.95;;
20150;SDS011;10236;49.638;6.830;2022-09-03T10:31:11;7.53;;;5.93;;
20150;SDS011;10236;49.638;6.830;2022-09-03T10:33:45;5.57;;;5.07;;
20150;SDS011;10236;49.638;6.830;2022-09-03T10:39:04;7.50;;;4.07;;
20150;SDS011;10236;49.638;6.830;2022-09-03T10:41:43;4.85;;;4.13;;
20150;SDS011;10236;49.638;6.830;2022-09-03T10:44:27;5.35;;;4.60;;
20150;SDS011;10236;49.638;6.830;2022-09-03T10:52:19;4.70;;;4.30;;
20150;SDS011;10236;49.638;6.830;2022-09-03T10:55:01;5.00;;;4.35;;
20150;SDS011;10236;49.638;6.830;2022-09-03T10:57:44;5.30;;;4.80;;
20150;SDS011;10236;49.638;6.830;2022-09-03T11:00:14;3.97;;;3.67;;
20150;SDS011;10236;49.638;6.830;2022-09-03T11:07:44;4.60;;;4.20;;
20150;SDS011;10236;49.638;6.830;2022-09-03T11:10:14;4.72;;;4.28;;
20150;SDS011;10236;49.638;6.830;2022-09-03T11:12:43;5.22;;;4.72;;
20150;SDS011;10236;49.638;6.830;2022-09-03T11:17:45;4.47;;;4.07;;
20150;SDS011;10236;49.638;6.830;2022-09-03T11:20:23;4.68;;;4.00;;
20150;SDS011;10236;49.638;6.830;2022-09-03T11:22:50;3.80;;;3.50;;
20150;SDS011;10236;49.638;6.830;2022-09-03T11:25:18;4.75;;;4.28;;
20150;SDS011;10236;49.638;6.830;2022-09-03T11:30:12;6.03;;;3.25;;
20150;SDS011;10236;49.638;6.830;2022-09-03T11:35:15;4.45;;;3.40;;
20150;SDS011;10236;49.638;6.830;2022-09-03T11:37:52;4.13;;;3.55;;
20150;SDS011;10236;49.638;6.830;2022-09-03T11:40:18;3.90;;;3.50;;
20150;SDS011;10236;49.638;6.830;2022-09-03T11:42:46;3.70;;;3.40;;
20150;SDS011;10236;49.638;6.830;2022-09-03T11:47:56;4.65;;;3.63;;
20150;SDS011;10236;49.638;6.830;2022-09-03T11:50:27;3.90;;;3.47;;
20150;SDS011;10236;49.638;6.830;2022-09-03T11:53:10;4.18;;;3.72;;
20150;SDS011;10236;49.638;6.830;2022-09-03T12:04:34;4.30;;;3.90;;
20150;SDS011;10236;49.638;6.830;2022-09-03T12:20:36;3.53;;;2.60;;
20150;SDS011;10236;49.638;6.830;2022-09-03T12:23:02;3.50;;;3.20;;
20150;SDS011;10236;49.638;6.830;2022-09-03T12:25:28;6.43;;;3.55;;
20150;SDS011;10236;49.638;6.830;2022-09-03T12:27:54;4.07;;;3.25;;
20150;SDS011;10236;49.638;6.830;2022-09-03T12:30:21;4.00;;;2.97;;
20150;SDS011;10236;49.638;6.830;2022-09-03T12:32:48;3.58;;;3.15;;
20150;SDS011;10236;49.638;6.830;2022-09-03T12:35:20;5.05;;;3.90;;
20150;SDS011;10236;49.638;6.830;2022-09-03T12:37:46;4.38;;;3.88;;
20150;SDS011;10236;49.638;6.830;2022-09-03T12:40:26;5.88;;;4.35;;
20150;SDS011;10236;49.638;6.830;2022-09-03T12:42:52;4.97;;;4.30;;
20150;SDS011;10236;49.638;6.830;2022-09-03T12:45:20;5.10;;;4.18;;
20150;SDS011;10236;49.638;6.830;2022-09-03T12:47:47;4.20;;;3.90;;
20150;SDS011;10236;49.638;6.830;2022-09-03T12:50:14;6.05;;;4.72;;
20150;SDS011;10236;49.638;6.830;2022-09-03T12:52:45;5.40;;;4.65;;
20150;SDS011;10236;49.638;6.830;2022-09-03T12:57:43;4.63;;;4.13;;
20150;SDS011;10236;49.638;6.830;2022-09-03T13:00:12;5.30;;;4.03;;
20150;SDS011;10236;49.638;6.830;2022-09-03T13:02:41;5.13;;;3.90;;
20150;SDS011;10236;49.638;6.830;2022-09-03T13:05:15;5.63;;;3.65;;
20150;SDS011;10236;49.638;6.830;2022-09-03T13:07:42;4.82;;;3.25;;
20150;SDS011;10236;49.638;6.830;2022-09-03T13:10:15;4.53;;;3.47;;
20150;SDS011;10236;49.638;6.830;2022-09-03T13:12:48;3.90;;;2.92;;
20150;SDS011;10236;49.638;6.830;2022-09-03T13:15:18;3.90;;;3.20;;
20150;SDS011;10236;49.638;6.830;2022-09-03T13:23:05;4.28;;;3.47;;
20150;SDS011;10236;49.638;6.830;2022-09-03T13:25:43;4.00;;;3.63;;
20150;SDS011;10236;49.638;6.830;2022-09-03T13:31:21;4.65;;;4.10;;
20150;SDS011;10236;49.638;6.830;2022-09-03T13:33:52;4.32;;;3.13;;
20150;SDS011;10236;49.638;6.830;2022-09-03T13:36:20;6.07;;;3.28;;
20150;SDS011;10236;49.638;6.830;2022-09-03T13:39:06;3.50;;;2.75;;
20150;SDS011;10236;49.638;6.830;2022-09-03T13:41:37;4.00;;;3.00;;
20150;SDS011;10236;49.638;6.830;2022-09-03T13:52:17;3.28;;;3.08;;
20150;SDS011;10236;49.638;6.830;2022-09-03T13:54:49;3.00;;;2.70;;
20150;SDS011;10236;49.638;6.830;2022-09-03T14:02:22;3.63;;;1.90;;
20150;SDS011;10236;49.638;6.830;2022-09-03T14:07:26;1.48;;;1.38;;
20150;SDS011;10236;49.638;6.830;2022-09-03T14:09:55;2.22;;;1.15;;
20150;SDS011;10236;49.638;6.830;2022-09-03T14:12:32;2.00;;;1.23;;
20150;SDS011;10236;49.638;6.830;2022-09-03T14:15:02;1.30;;;1.20;;
20150;SDS011;10236;49.638;6.830;2022-09-03T14:18:34;1.48;;;1.00;;
20150;SDS011;10236;49.638;6.830;2022-09-03T14:20:28;1.85;;;1.10;;
20150;SDS011;10236;49.638;6.830;2022-09-03T14:22:58;1.63;;;1.17;;
20150;SDS011;10236;49.638;6.830;2022-09-03T14:25:28;2.88;;;1.45;;
20150;SDS011;10236;49.638;6.830;2022-09-03T14:27:54;2.92;;;1.33;;
20150;SDS011;10236;49.638;6.830;2022-09-03T14:33:09;1.92;;;1.10;;
20150;SDS011;10236;49.638;6.830;2022-09-03T14:35:47;1.70;;;0.95;;
20150;SDS011;10236;49.638;6.830;2022-09-03T14:38:29;1.48;;;1.25;;
20150;SDS011;10236;49.638;6.830;2022-09-03T14:44:16;1.23;;;1.13;;
20150;SDS011;10236;49.638;6.830;2022-09-03T14:54:22;1.98;;;1.38;;
20150;SDS011;10236;49.638;6.830;2022-09-03T15:04:48;1.55;;;1.00;;
20150;SDS011;10236;49.638;6.830;2022-09-03T15:09:58;1.35;;;0.93;;
20150;SDS011;10236;49.638;6.830;2022-09-03T15:12:36;1.48;;;0.98;;
20150;SDS011;10236;49.638;6.830;2022-09-03T15:15:12;1.52;;;1.20;;
20150;SDS011;10236;49.638;6.830;2022-09-03T15:30:59;2.05;;;1.00;;
20150;SDS011;10236;49.638;6.830;2022-09-03T15:38:59;2.35;;;0.90;;
20150;SDS011;10236;49.638;6.830;2022-09-03T15:41:39;1.33;;;0.90;;
20150;SDS011;10236;49.638;6.830;2022-09-03T15:44:07;1.30;;;0.95;;
20150;SDS011;10236;49.638;6.830;2022-09-03T15:46:37;1.30;;;1.20;;
20150;SDS011;10236;49.638;6.830;2022-09-03T15:49:07;1.77;;;1.00;;
20150;SDS011;10236;49.638;6.830;2022-09-03T15:57:02;2.33;;;1.30;;
20150;SDS011;10236;49.638;6.830;2022-09-03T16:04:41;3.53;;;2.40;;
20150;SDS011;10236;49.638;6.830;2022-09-03T16:07:21;3.53;;;2.95;;
20150;SDS011;10236;49.638;6.830;2022-09-03T16:15:00;4.55;;;2.60;;
20150;SDS011;10236;49.638;6.830;2022-09-03T16:17:38;4.35;;;2.55;;
20150;SDS011;10236;49.638;6.830;2022-09-03T16:20:32;4.90;;;3.55;;
20150;SDS011;10236;49.638;6.830;2022-09-03T16:25:28;5.72;;;4.40;;
20150;SDS011;10236;49.638;6.830;2022-09-03T16:28:05;4.50;;;4.07;;
20150;SDS011;10236;49.638;6.830;2022-09-03T16:36:03;3.63;;;2.85;;
20150;SDS011;10236;49.638;6.830;2022-09-03T16:38:33;5.90;;;3.38;;
20150;SDS011;10236;49.638;6.830;2022-09-03T16:44:13;2.78;;;2.58;;
20150;SDS011;10236;49.638;6.830;2022-09-03T16:58:38;4.03;;;3.58;;
20150;SDS011;10236;49.638;6.830;2022-09-03T17:15:36;5.10;;;4.60;;
20150;SDS011;10236;49.638;6.830;2022-09-03T17:20:45;4.45;;;4.00;;
20150;SDS011;10236;49.638;6.830;2022-09-03T17:26:16;4.97;;;4.50;;
20150;SDS011;10236;49.638;6.830;2022-09-03T17:29:03;5.95;;;5.13;;
20150;SDS011;10236;49.638;6.830;2022-09-03T17:32:04;6.63;;;4.80;;
20150;SDS011;10236;49.638;6.830;2022-09-03T17:34:53;7.60;;;4.57;;
20150;SDS011;10236;49.638;6.830;2022-09-03T17:40:32;5.40;;;3.63;;
20150;SDS011;10236;49.638;6.830;2022-09-03T17:49:05;4.18;;;3.80;;
20150;SDS011;10236;49.638;6.830;2022-09-03T17:54:53;3.53;;;3.22;;
20150;SDS011;10236;49.638;6.830;2022-09-03T17:57:39;4.60;;;3.70;;
20150;SDS011;10236;49.638;6.830;2022-09-03T18:00:20;3.40;;;3.10;;
20150;SDS011;10236;49.638;6.830;2022-09-03T18:05:58;4.43;;;4.00;;
20150;SDS011;10236;49.638;6.830;2022-09-03T18:11:18;4.78;;;3.55;;
20150;SDS011;10236;49.638;6.830;2022-09-03T18:16:53;4.10;;;3.70;;
20150;SDS011;10236;49.638;6.830;2022-09-03T18:20:26;5.38;;;3.53;;
20150;SDS011;10236;49.638;6.830;2022-09-03T18:25:30;5.72;;;3.88;;
20150;SDS011;10236;49.638;6.830;2022-09-03T18:28:29;3.88;;;3.47;;
20150;SDS011;10236;49.638;6.830;2022-09-03T18:31:15;3.42;;;3.03;;
20150;SDS011;10236;49.638;6.830;2022-09-03T18:37:15;4.28;;;3.38;;
20150;SDS011;10236;49.638;6.830;2022-09-03T18:40:00;5.18;;;3.17;;
20150;SDS011;10236;49.638;6.830;2022-09-03T18:54:31;5.37;;;4.20;;
20150;SDS011;10236;49.638;6.830;2022-09-03T18:57:22;4.83;;;3.63;;
20150;SDS011;10236;49.638;6.830;2022-09-03T19:09:08;6.50;;;3.93;;
20150;SDS011;10236;49.638;6.830;2022-09-03T19:24:00;6.57;;;5.50;;
20150;SDS011;10236;49.638;6.830;2022-09-03T19:29:48;4.67;;;4.27;;
20150;SDS011;10236;49.638;6.830;2022-09-03T19:32:45;5.83;;;4.37;;
20150;SDS011;10236;49.638;6.830;2022-09-03T19:35:42;4.23;;;3.83;;
20150;SDS011;10236;49.638;6.830;2022-09-03T19:38:37;5.47;;;4.07;;
20150;SDS011;10236;49.638;6.830;2022-09-03T19:41:26;4.73;;;3.87;;
20150;SDS011;10236;49.638;6.830;2022-09-03T19:46:59;5.77;;;4.43;;
20150;SDS011;10236;49.638;6.830;2022-09-03T19:49:57;5.10;;;4.17;;
20150;SDS011;10236;49.638;6.830;2022-09-03T19:52:51;5.97;;;4.20;;
20150;SDS011;10236;49.638;6.830;2022-09-03T19:55:38;5.17;;;4.67;;
20150;SDS011;10236;49.638;6.830;2022-09-03T19:58:25;5.13;;;4.53;;
20150;SDS011;10236;49.638;6.830;2022-09-03T20:01:11;5.27;;;4.30;;
20150;SDS011;10236;49.638;6.830;2022-09-03T20:03:57;4.33;;;3.50;;
20150;SDS011;10236;49.638;6.830;2022-09-03T20:06:43;4.30;;;3.63;;
20150;SDS011;10236;49.638;6.830;2022-09-03T20:09:31;4.73;;;4.20;;
20150;SDS011;10236;49.638;6.830;2022-09-03T20:12:16;4.60;;;4.20;;
20150;SDS011;10236;49.638;6.830;2022-09-03T20:14:44;4.17;;;3.77;;
20150;SDS011;10236;49.638;6.830;2022-09-03T20:20:02;4.93;;;4.10;;
20150;SDS011;10236;49.638;6.830;2022-09-03T20:22:39;3.83;;;3.43;;
20150;SDS011;10236;49.638;6.830;2022-09-03T20:27:42;4.23;;;3.83;;